sensor_id;sensor_type;location;lat;lon;timestamp;temperature;humidity
52245;DHT22;55759;51.586;-1.758;2023-04-03T00:01:00;3.40;84.00
52245;DHT22;55759;51.586;-1.758;2023-04-03T00:03:26;3.40;83.80
52245;DHT22;55759;51.586;-1.758;2023-04-03T00:05:52;3.30;84.20
52245;DHT22;55759;51.586;-1.758;2023-04-03T00:08:18;3.40;84.00
52245;DHT22;55759;51.586;-1.758;2023-04-03T00:10:44;3.30;84.10
52245;DHT22;55759;51.586;-1.758;2023-04-03T00:13:10;3.30;84.30
52245;DHT22;55759;51.586;-1.758;2023-04-03T00:15:37;3.30;84.30
52245;DHT22;55759;51.586;-1.758;2023-04-03T00:18:04;3.30;84.40
52245;DHT22;55759;51.586;-1.758;2023-04-03T00:20:30;3.20;84.30
52245;DHT22;55759;51.586;-1.758;2023-04-03T00:22:55;3.20;84.60
52245;DHT22;55759;51.586;-1.758;2023-04-03T00:25:21;3.20;84.30
52245;DHT22;55759;51.586;-1.758;2023-04-03T00:27:47;3.10;84.50
52245;DHT22;55759;51.586;-1.758;2023-04-03T00:30:15;3.10;84.70
52245;DHT22;55759;51.586;-1.758;2023-04-03T00:32:41;3.10;85.00
52245;DHT22;55759;51.586;-1.758;2023-04-03T00:35:07;3.10;84.90
52245;DHT22;55759;51.586;-1.758;2023-04-03T00:37:33;3.10;84.70
52245;DHT22;55759;51.586;-1.758;2023-04-03T00:39:58;3.00;84.70
52245;DHT22;55759;51.586;-1.758;2023-04-03T00:42:24;3.00;85.00
52245;DHT22;55759;51.586;-1.758;2023-04-03T00:45:22;2.90;85.10
52245;DHT22;55759;51.586;-1.758;2023-04-03T00:47:42;2.90;85.10
52245;DHT22;55759;51.586;-1.758;2023-04-03T00:50:08;2.80;85.40
52245;DHT22;55759;51.586;-1.758;2023-04-03T00:52:35;2.70;85.60
52245;DHT22;55759;51.586;-1.758;2023-04-03T00:55:07;2.70;85.70
52245;DHT22;55759;51.586;-1.758;2023-04-03T00:57:34;2.70;85.90
52245;DHT22;55759;51.586;-1.758;2023-04-03T01:00:07;2.60;85.90
52245;DHT22;55759;51.586;-1.758;2023-04-03T01:02:34;2.60;86.20
52245;DHT22;55759;51.586;-1.758;2023-04-03T01:05:00;2.60;86.30
52245;DHT22;55759;51.586;-1.758;2023-04-03T01:07:35;2.60;86.30
52245;DHT22;55759;51.586;-1.758;2023-04-03T01:10:06;2.50;86.50
52245;DHT22;55759;51.586;-1.758;2023-04-03T01:12:35;2.40;86.70
52245;DHT22;55759;51.586;-1.758;2023-04-03T01:17:37;2.40;86.90
52245;DHT22;55759;51.586;-1.758;2023-04-03T01:25:36;2.40;86.80
52245;DHT22;55759;51.586;-1.758;2023-04-03T01:28:04;2.30;86.90
52245;DHT22;55759;51.586;-1.758;2023-04-03T01:30:36;2.30;86.90
52245;DHT22;55759;51.586;-1.758;2023-04-03T01:33:05;2.30;86.90
52245;DHT22;55759;51.586;-1.758;2023-04-03T01:35:31;2.20;87.20
52245;DHT22;55759;51.586;-1.758;2023-04-03T01:37:56;2.20;87.20
52245;DHT22;55759;51.586;-1.758;2023-04-03T01:40:22;2.20;87.40
52245;DHT22;55759;51.586;-1.758;2023-04-03T01:42:48;2.10;87.40
52245;DHT22;55759;51.586;-1.758;2023-04-03T01:45:14;2.10;87.50
52245;DHT22;55759;51.586;-1.758;2023-04-03T01:47:40;2.10;87.60
52245;DHT22;55759;51.586;-1.758;2023-04-03T01:50:05;2.10;87.70
52245;DHT22;55759;51.586;-1.758;2023-04-03T01:52:31;2.00;87.80
52245;DHT22;55759;51.586;-1.758;2023-04-03T01:54:57;2.10;87.90
52245;DHT22;55759;51.586;-1.758;2023-04-03T01:57:23;2.00;87.90
52245;DHT22;55759;51.586;-1.758;2023-04-03T01:59:48;2.00;88.00
52245;DHT22;55759;51.586;-1.758;2023-04-03T02:02:14;2.00;87.90
52245;DHT22;55759;51.586;-1.758;2023-04-03T02:04:40;1.90;87.90
52245;DHT22;55759;51.586;-1.758;2023-04-03T02:07:06;1.90;87.80
52245;DHT22;55759;51.586;-1.758;2023-04-03T02:09:32;1.90;88.00
52245;DHT22;55759;51.586;-1.758;2023-04-03T02:11:57;1.90;88.10
52245;DHT22;55759;51.586;-1.758;2023-04-03T02:14:23;1.90;88.30
52245;DHT22;55759;51.586;-1.758;2023-04-03T02:16:49;1.80;88.40
52245;DHT22;55759;51.586;-1.758;2023-04-03T02:19:15;1.80;88.40
52245;DHT22;55759;51.586;-1.758;2023-04-03T02:21:41;1.70;88.60
52245;DHT22;55759;51.586;-1.758;2023-04-03T02:24:07;1.70;88.70
52245;DHT22;55759;51.586;-1.758;2023-04-03T02:26:33;1.70;88.80
52245;DHT22;55759;51.586;-1.758;2023-04-03T02:28:58;1.70;88.90
52245;DHT22;55759;51.586;-1.758;2023-04-03T02:31:24;1.60;88.90
52245;DHT22;55759;51.586;-1.758;2023-04-03T02:33:50;1.60;89.00
52245;DHT22;55759;51.586;-1.758;2023-04-03T02:36:16;1.50;89.10
52245;DHT22;55759;51.586;-1.758;2023-04-03T02:38:42;1.50;89.20
52245;DHT22;55759;51.586;-1.758;2023-04-03T02:41:10;1.50;89.20
52245;DHT22;55759;51.586;-1.758;2023-04-03T02:43:37;1.50;89.20
52245;DHT22;55759;51.586;-1.758;2023-04-03T02:46:02;1.50;89.20
52245;DHT22;55759;51.586;-1.758;2023-04-03T02:48:28;1.40;89.30
52245;DHT22;55759;51.586;-1.758;2023-04-03T02:50:54;1.40;89.30
52245;DHT22;55759;51.586;-1.758;2023-04-03T02:53:20;1.40;89.30
52245;DHT22;55759;51.586;-1.758;2023-04-03T02:55:46;1.30;89.40
52245;DHT22;55759;51.586;-1.758;2023-04-03T02:58:11;1.20;89.40
52245;DHT22;55759;51.586;-1.758;2023-04-03T03:00:38;1.20;89.50
52245;DHT22;55759;51.586;-1.758;2023-04-03T03:03:04;1.10;89.60
52245;DHT22;55759;51.586;-1.758;2023-04-03T03:05:29;1.10;89.60
52245;DHT22;55759;51.586;-1.758;2023-04-03T03:07:55;1.10;89.60
52245;DHT22;55759;51.586;-1.758;2023-04-03T03:10:22;1.10;89.70
52245;DHT22;55759;51.586;-1.758;2023-04-03T03:12:48;1.10;89.70
52245;DHT22;55759;51.586;-1.758;2023-04-03T03:15:14;1.10;89.70
52245;DHT22;55759;51.586;-1.758;2023-04-03T03:17:40;1.00;89.70
52245;DHT22;55759;51.586;-1.758;2023-04-03T03:20:07;1.00;89.70
52245;DHT22;55759;51.586;-1.758;2023-04-03T03:22:33;1.00;89.80
52245;DHT22;55759;51.586;-1.758;2023-04-03T03:24:59;0.90;89.80
52245;DHT22;55759;51.586;-1.758;2023-04-03T03:27:26;0.90;89.80
52245;DHT22;55759;51.586;-1.758;2023-04-03T03:29:52;0.80;89.90
52245;DHT22;55759;51.586;-1.758;2023-04-03T03:32:17;0.80;90.00
52245;DHT22;55759;51.586;-1.758;2023-04-03T03:34:43;0.70;90.00
52245;DHT22;55759;51.586;-1.758;2023-04-03T03:37:09;0.70;90.00
52245;DHT22;55759;51.586;-1.758;2023-04-03T03:39:35;0.60;90.10
52245;DHT22;55759;51.586;-1.758;2023-04-03T03:42:00;0.60;90.20
52245;DHT22;55759;51.586;-1.758;2023-04-03T03:44:26;0.60;90.30
52245;DHT22;55759;51.586;-1.758;2023-04-03T03:46:54;0.50;90.30
52245;DHT22;55759;51.586;-1.758;2023-04-03T03:49:20;0.60;90.40
52245;DHT22;55759;51.586;-1.758;2023-04-03T03:51:46;0.60;90.50
52245;DHT22;55759;51.586;-1.758;2023-04-03T03:54:12;0.60;90.50
52245;DHT22;55759;51.586;-1.758;2023-04-03T03:56:38;0.60;90.50
52245;DHT22;55759;51.586;-1.758;2023-04-03T03:59:04;0.50;90.50
52245;DHT22;55759;51.586;-1.758;2023-04-03T04:01:31;0.50;90.50
52245;DHT22;55759;51.586;-1.758;2023-04-03T04:03:57;0.50;90.50
52245;DHT22;55759;51.586;-1.758;2023-04-03T04:06:23;0.40;90.50
52245;DHT22;55759;51.586;-1.758;2023-04-03T04:08:49;0.40;90.50
52245;DHT22;55759;51.586;-1.758;2023-04-03T04:11:15;0.40;90.40
52245;DHT22;55759;51.586;-1.758;2023-04-03T04:13:41;0.30;90.40
52245;DHT22;55759;51.586;-1.758;2023-04-03T04:16:07;0.20;90.30
52245;DHT22;55759;51.586;-1.758;2023-04-03T04:18:33;0.20;90.20
52245;DHT22;55759;51.586;-1.758;2023-04-03T04:20:59;0.10;90.20
52245;DHT22;55759;51.586;-1.758;2023-04-03T04:23:25;0.10;90.30
52245;DHT22;55759;51.586;-1.758;2023-04-03T04:25:51;0.10;90.40
52245;DHT22;55759;51.586;-1.758;2023-04-03T04:28:17;0.10;90.40
52245;DHT22;55759;51.586;-1.758;2023-04-03T04:30:43;0.10;90.50
52245;DHT22;55759;51.586;-1.758;2023-04-03T04:33:09;0.10;90.70
52245;DHT22;55759;51.586;-1.758;2023-04-03T04:35:35;0.10;90.70
52245;DHT22;55759;51.586;-1.758;2023-04-03T04:38:01;0.20;90.80
52245;DHT22;55759;51.586;-1.758;2023-04-03T04:40:28;0.30;90.90
52245;DHT22;55759;51.586;-1.758;2023-04-03T04:42:53;0.40;91.00
52245;DHT22;55759;51.586;-1.758;2023-04-03T04:45:19;0.50;91.00
52245;DHT22;55759;51.586;-1.758;2023-04-03T04:47:45;0.50;91.00
52245;DHT22;55759;51.586;-1.758;2023-04-03T04:50:11;0.60;91.00
52245;DHT22;55759;51.586;-1.758;2023-04-03T04:52:38;0.60;90.90
52245;DHT22;55759;51.586;-1.758;2023-04-03T04:55:04;0.60;90.80
52245;DHT22;55759;51.586;-1.758;2023-04-03T04:57:30;0.60;90.70
52245;DHT22;55759;51.586;-1.758;2023-04-03T05:03:05;0.50;90.40
52245;DHT22;55759;51.586;-1.758;2023-04-03T05:05:31;0.50;90.40
52245;DHT22;55759;51.586;-1.758;2023-04-03T05:07:57;0.50;90.40
52245;DHT22;55759;51.586;-1.758;2023-04-03T05:10:23;0.40;90.40
52245;DHT22;55759;51.586;-1.758;2023-04-03T05:12:48;0.40;90.40
52245;DHT22;55759;51.586;-1.758;2023-04-03T05:15:14;0.50;90.50
52245;DHT22;55759;51.586;-1.758;2023-04-03T05:17:40;0.50;90.60
52245;DHT22;55759;51.586;-1.758;2023-04-03T05:20:06;0.50;90.70
52245;DHT22;55759;51.586;-1.758;2023-04-03T05:22:32;0.60;90.80
52245;DHT22;55759;51.586;-1.758;2023-04-03T05:24:58;0.70;90.90
52245;DHT22;55759;51.586;-1.758;2023-04-03T05:27:23;0.80;90.80
52245;DHT22;55759;51.586;-1.758;2023-04-03T05:29:50;0.80;90.70
52245;DHT22;55759;51.586;-1.758;2023-04-03T05:32:16;0.90;90.80
52245;DHT22;55759;51.586;-1.758;2023-04-03T05:34:42;0.90;90.80
52245;DHT22;55759;51.586;-1.758;2023-04-03T05:37:07;1.00;90.80
52245;DHT22;55759;51.586;-1.758;2023-04-03T05:39:33;1.10;90.80
52245;DHT22;55759;51.586;-1.758;2023-04-03T05:41:59;1.20;90.80
52245;DHT22;55759;51.586;-1.758;2023-04-03T05:44:25;1.20;90.80
52245;DHT22;55759;51.586;-1.758;2023-04-03T05:46:51;1.30;90.80
52245;DHT22;55759;51.586;-1.758;2023-04-03T05:49:16;1.40;90.80
52245;DHT22;55759;51.586;-1.758;2023-04-03T05:51:43;1.40;90.80
52245;DHT22;55759;51.586;-1.758;2023-04-03T05:54:17;1.50;90.70
52245;DHT22;55759;51.586;-1.758;2023-04-03T05:56:44;1.60;90.70
52245;DHT22;55759;51.586;-1.758;2023-04-03T05:59:10;1.70;90.70
52245;DHT22;55759;51.586;-1.758;2023-04-03T06:01:35;1.80;90.60
52245;DHT22;55759;51.586;-1.758;2023-04-03T06:04:01;1.90;90.30
52245;DHT22;55759;51.586;-1.758;2023-04-03T06:06:47;1.90;90.10
52245;DHT22;55759;51.586;-1.758;2023-04-03T06:09:14;2.00;89.90
52245;DHT22;55759;51.586;-1.758;2023-04-03T06:11:40;1.90;89.70
52245;DHT22;55759;51.586;-1.758;2023-04-03T06:14:07;1.80;89.60
52245;DHT22;55759;51.586;-1.758;2023-04-03T06:16:33;1.70;89.60
52245;DHT22;55759;51.586;-1.758;2023-04-03T06:18:59;1.70;89.60
52245;DHT22;55759;51.586;-1.758;2023-04-03T06:21:25;1.60;89.60
52245;DHT22;55759;51.586;-1.758;2023-04-03T06:23:50;1.50;89.70
52245;DHT22;55759;51.586;-1.758;2023-04-03T06:26:16;1.50;89.80
52245;DHT22;55759;51.586;-1.758;2023-04-03T06:28:42;1.50;89.90
52245;DHT22;55759;51.586;-1.758;2023-04-03T06:31:08;1.50;89.90
52245;DHT22;55759;51.586;-1.758;2023-04-03T06:33:34;1.40;90.00
52245;DHT22;55759;51.586;-1.758;2023-04-03T06:36:03;1.40;90.00
52245;DHT22;55759;51.586;-1.758;2023-04-03T06:38:29;1.50;90.10
52245;DHT22;55759;51.586;-1.758;2023-04-03T06:40:55;1.60;90.20
52245;DHT22;55759;51.586;-1.758;2023-04-03T06:43:22;1.60;90.10
52245;DHT22;55759;51.586;-1.758;2023-04-03T06:45:47;1.70;90.20
52245;DHT22;55759;51.586;-1.758;2023-04-03T06:48:13;1.70;90.20
52245;DHT22;55759;51.586;-1.758;2023-04-03T06:50:39;1.80;90.20
52245;DHT22;55759;51.586;-1.758;2023-04-03T06:53:05;1.90;90.20
52245;DHT22;55759;51.586;-1.758;2023-04-03T06:55:32;1.90;90.10
52245;DHT22;55759;51.586;-1.758;2023-04-03T06:57:58;2.00;90.10
52245;DHT22;55759;51.586;-1.758;2023-04-03T07:00:23;2.10;89.80
52245;DHT22;55759;51.586;-1.758;2023-04-03T07:02:50;2.10;89.50
52245;DHT22;55759;51.586;-1.758;2023-04-03T07:05:16;2.10;89.30
52245;DHT22;55759;51.586;-1.758;2023-04-03T07:07:41;2.20;89.20
52245;DHT22;55759;51.586;-1.758;2023-04-03T07:10:08;2.20;88.90
52245;DHT22;55759;51.586;-1.758;2023-04-03T07:12:34;2.30;88.80
52245;DHT22;55759;51.586;-1.758;2023-04-03T07:15:00;2.30;88.70
52245;DHT22;55759;51.586;-1.758;2023-04-03T07:17:25;2.40;88.60
52245;DHT22;55759;51.586;-1.758;2023-04-03T07:19:52;2.60;88.80
52245;DHT22;55759;51.586;-1.758;2023-04-03T07:22:18;2.70;88.80
52245;DHT22;55759;51.586;-1.758;2023-04-03T07:24:44;2.70;88.70
52245;DHT22;55759;51.586;-1.758;2023-04-03T07:27:09;2.80;88.50
52245;DHT22;55759;51.586;-1.758;2023-04-03T07:29:38;2.90;88.20
52245;DHT22;55759;51.586;-1.758;2023-04-03T07:32:05;3.10;88.00
52245;DHT22;55759;51.586;-1.758;2023-04-03T07:34:31;3.10;87.90
52245;DHT22;55759;51.586;-1.758;2023-04-03T07:36:58;3.20;87.40
52245;DHT22;55759;51.586;-1.758;2023-04-03T07:39:24;3.40;87.10
52245;DHT22;55759;51.586;-1.758;2023-04-03T07:41:50;3.50;86.90
52245;DHT22;55759;51.586;-1.758;2023-04-03T07:44:17;3.60;85.90
52245;DHT22;55759;51.586;-1.758;2023-04-03T07:46:42;3.70;85.40
52245;DHT22;55759;51.586;-1.758;2023-04-03T07:49:08;3.70;85.10
52245;DHT22;55759;51.586;-1.758;2023-04-03T07:51:34;3.80;85.40
52245;DHT22;55759;51.586;-1.758;2023-04-03T08:00:07;4.10;85.20
52245;DHT22;55759;51.586;-1.758;2023-04-03T08:02:39;4.20;84.90
52245;DHT22;55759;51.586;-1.758;2023-04-03T08:05:05;4.40;84.30
52245;DHT22;55759;51.586;-1.758;2023-04-03T08:07:31;4.50;84.10
52245;DHT22;55759;51.586;-1.758;2023-04-03T08:09:57;4.60;83.90
52245;DHT22;55759;51.586;-1.758;2023-04-03T08:12:23;4.70;83.60
52245;DHT22;55759;51.586;-1.758;2023-04-03T08:14:49;4.80;83.50
52245;DHT22;55759;51.586;-1.758;2023-04-03T08:17:14;4.90;83.20
52245;DHT22;55759;51.586;-1.758;2023-04-03T08:19:40;5.10;82.80
52245;DHT22;55759;51.586;-1.758;2023-04-03T08:22:09;5.20;82.80
52245;DHT22;55759;51.586;-1.758;2023-04-03T08:24:34;5.30;81.60
52245;DHT22;55759;51.586;-1.758;2023-04-03T08:27:00;5.40;81.60
52245;DHT22;55759;51.586;-1.758;2023-04-03T08:29:27;5.50;81.50
52245;DHT22;55759;51.586;-1.758;2023-04-03T08:31:53;5.60;81.60
52245;DHT22;55759;51.586;-1.758;2023-04-03T08:34:19;5.80;81.90
52245;DHT22;55759;51.586;-1.758;2023-04-03T08:36:46;6.00;80.80
52245;DHT22;55759;51.586;-1.758;2023-04-03T08:39:12;6.10;80.30
52245;DHT22;55759;51.586;-1.758;2023-04-03T08:41:40;6.20;78.70
52245;DHT22;55759;51.586;-1.758;2023-04-03T08:47:24;6.40;78.40
52245;DHT22;55759;51.586;-1.758;2023-04-03T08:49:55;6.50;77.40
52245;DHT22;55759;51.586;-1.758;2023-04-03T08:52:39;6.50;76.20
52245;DHT22;55759;51.586;-1.758;2023-04-03T08:55:21;6.60;76.10
52245;DHT22;55759;51.586;-1.758;2023-04-03T08:57:49;6.60;76.00
52245;DHT22;55759;51.586;-1.758;2023-04-03T09:00:22;6.60;75.90
52245;DHT22;55759;51.586;-1.758;2023-04-03T09:02:51;6.70;76.20
52245;DHT22;55759;51.586;-1.758;2023-04-03T09:05:42;6.80;76.40
52245;DHT22;55759;51.586;-1.758;2023-04-03T09:14:11;7.10;73.90
52245;DHT22;55759;51.586;-1.758;2023-04-03T09:16:53;7.10;74.10
52245;DHT22;55759;51.586;-1.758;2023-04-03T09:19:54;7.30;75.00
52245;DHT22;55759;51.586;-1.758;2023-04-03T09:22:27;7.50;73.90
52245;DHT22;55759;51.586;-1.758;2023-04-03T09:27:23;7.60;72.10
52245;DHT22;55759;51.586;-1.758;2023-04-03T09:29:49;7.70;72.30
52245;DHT22;55759;51.586;-1.758;2023-04-03T09:32:34;7.80;71.60
52245;DHT22;55759;51.586;-1.758;2023-04-03T09:35:49;7.80;71.50
52245;DHT22;55759;51.586;-1.758;2023-04-03T09:38:02;7.90;70.20
52245;DHT22;55759;51.586;-1.758;2023-04-03T09:40:41;8.00;70.20
52245;DHT22;55759;51.586;-1.758;2023-04-03T09:45:42;8.30;70.80
52245;DHT22;55759;51.586;-1.758;2023-04-03T09:53:43;8.60;66.90
52245;DHT22;55759;51.586;-1.758;2023-04-03T09:58:43;8.60;67.00
52245;DHT22;55759;51.586;-1.758;2023-04-03T10:01:28;8.90;68.40
52245;DHT22;55759;51.586;-1.758;2023-04-03T10:04:13;9.10;66.00
52245;DHT22;55759;51.586;-1.758;2023-04-03T10:06:41;9.30;66.80
52245;DHT22;55759;51.586;-1.758;2023-04-03T10:09:31;9.40;65.50
52245;DHT22;55759;51.586;-1.758;2023-04-03T10:14:31;9.60;65.20
52245;DHT22;55759;51.586;-1.758;2023-04-03T10:20:00;10.10;64.40
52245;DHT22;55759;51.586;-1.758;2023-04-03T10:22:34;10.10;63.90
52245;DHT22;55759;51.586;-1.758;2023-04-03T10:25:20;10.40;64.10
52245;DHT22;55759;51.586;-1.758;2023-04-03T10:27:59;11.00;62.40
52245;DHT22;55759;51.586;-1.758;2023-04-03T10:30:50;11.20;62.30
52245;DHT22;55759;51.586;-1.758;2023-04-03T10:33:22;11.60;62.10
52245;DHT22;55759;51.586;-1.758;2023-04-03T10:36:07;11.80;62.30
52245;DHT22;55759;51.586;-1.758;2023-04-03T10:38:55;12.20;61.90
52245;DHT22;55759;51.586;-1.758;2023-04-03T10:46:47;12.50;56.70
52245;DHT22;55759;51.586;-1.758;2023-04-03T10:52:22;13.20;57.20
52245;DHT22;55759;51.586;-1.758;2023-04-03T10:57:40;13.90;54.20
52245;DHT22;55759;51.586;-1.758;2023-04-03T11:00:14;14.10;53.20
52245;DHT22;55759;51.586;-1.758;2023-04-03T11:02:52;14.10;52.20
52245;DHT22;55759;51.586;-1.758;2023-04-03T11:05:37;13.70;50.60
52245;DHT22;55759;51.586;-1.758;2023-04-03T11:08:26;13.70;53.10
52245;DHT22;55759;51.586;-1.758;2023-04-03T11:10:58;13.80;52.90
52245;DHT22;55759;51.586;-1.758;2023-04-03T11:14:02;14.10;51.20
52245;DHT22;55759;51.586;-1.758;2023-04-03T11:16:31;14.20;52.60
52245;DHT22;55759;51.586;-1.758;2023-04-03T11:19:11;14.40;50.10
52245;DHT22;55759;51.586;-1.758;2023-04-03T11:22:09;14.40;50.50
52245;DHT22;55759;51.586;-1.758;2023-04-03T11:24:34;14.40;51.00
52245;DHT22;55759;51.586;-1.758;2023-04-03T11:27:22;15.00;50.50
52245;DHT22;55759;51.586;-1.758;2023-04-03T11:29:50;15.80;47.10
52245;DHT22;55759;51.586;-1.758;2023-04-03T11:35:48;16.00;48.30
52245;DHT22;55759;51.586;-1.758;2023-04-03T11:38:45;15.90;45.20
52245;DHT22;55759;51.586;-1.758;2023-04-03T11:41:28;15.40;46.00
52245;DHT22;55759;51.586;-1.758;2023-04-03T11:46:59;15.10;48.90
52245;DHT22;55759;51.586;-1.758;2023-04-03T12:00:47;16.30;47.40
52245;DHT22;55759;51.586;-1.758;2023-04-03T12:08:46;17.60;42.80
52245;DHT22;55759;51.586;-1.758;2023-04-03T12:16:43;19.10;43.50
52245;DHT22;55759;51.586;-1.758;2023-04-03T12:24:28;25.70;31.90
52245;DHT22;55759;51.586;-1.758;2023-04-03T12:40:48;28.60;25.50
52245;DHT22;55759;51.586;-1.758;2023-04-03T12:46:27;28.10;27.50
52245;DHT22;55759;51.586;-1.758;2023-04-03T12:48:58;28.60;25.60
52245;DHT22;55759;51.586;-1.758;2023-04-03T12:51:46;29.50;26.80
52245;DHT22;55759;51.586;-1.758;2023-04-03T12:54:22;30.60;25.20
52245;DHT22;55759;51.586;-1.758;2023-04-03T12:57:09;31.60;23.90
52245;DHT22;55759;51.586;-1.758;2023-04-03T12:59:38;31.70;25.80
52245;DHT22;55759;51.586;-1.758;2023-04-03T13:05:36;32.00;22.50
52245;DHT22;55759;51.586;-1.758;2023-04-03T13:11:46;32.00;24.50
52245;DHT22;55759;51.586;-1.758;2023-04-03T13:14:27;30.60;23.00
52245;DHT22;55759;51.586;-1.758;2023-04-03T13:19:40;30.50;23.60
52245;DHT22;55759;51.586;-1.758;2023-04-03T13:22:34;30.20;25.00
52245;DHT22;55759;51.586;-1.758;2023-04-03T13:25:07;28.30;24.50
52245;DHT22;55759;51.586;-1.758;2023-04-03T13:27:35;27.10;28.00
52245;DHT22;55759;51.586;-1.758;2023-04-03T13:30:02;28.40;32.70
52245;DHT22;55759;51.586;-1.758;2023-04-03T13:32:30;30.30;28.60
52245;DHT22;55759;51.586;-1.758;2023-04-03T13:34:56;30.80;24.50
52245;DHT22;55759;51.586;-1.758;2023-04-03T13:37:31;30.60;26.40
52245;DHT22;55759;51.586;-1.758;2023-04-03T13:40:17;31.30;26.70
52245;DHT22;55759;51.586;-1.758;2023-04-03T13:42:43;31.00;26.60
52245;DHT22;55759;51.586;-1.758;2023-04-03T13:45:27;31.20;22.70
52245;DHT22;55759;51.586;-1.758;2023-04-03T13:48:11;31.30;23.80
52245;DHT22;55759;51.586;-1.758;2023-04-03T13:51:00;29.50;24.20
52245;DHT22;55759;51.586;-1.758;2023-04-03T13:53:27;28.20;28.00
52245;DHT22;55759;51.586;-1.758;2023-04-03T13:56:07;28.40;27.40
52245;DHT22;55759;51.586;-1.758;2023-04-03T13:58:35;27.70;27.90
52245;DHT22;55759;51.586;-1.758;2023-04-03T14:04:18;29.40;25.20
52245;DHT22;55759;51.586;-1.758;2023-04-03T14:06:45;27.60;25.90
52245;DHT22;55759;51.586;-1.758;2023-04-03T14:09:11;27.10;31.20
52245;DHT22;55759;51.586;-1.758;2023-04-03T14:11:38;27.20;28.50
52245;DHT22;55759;51.586;-1.758;2023-04-03T14:14:14;25.80;28.30
52245;DHT22;55759;51.586;-1.758;2023-04-03T14:16:44;24.90;33.80
52245;DHT22;55759;51.586;-1.758;2023-04-03T14:19:23;26.00;32.00
52245;DHT22;55759;51.586;-1.758;2023-04-03T14:21:50;27.60;28.70
52245;DHT22;55759;51.586;-1.758;2023-04-03T14:24:19;27.70;27.00
52245;DHT22;55759;51.586;-1.758;2023-04-03T14:26:46;28.00;28.80
52245;DHT22;55759;51.586;-1.758;2023-04-03T14:29:13;28.60;28.50
52245;DHT22;55759;51.586;-1.758;2023-04-03T14:31:39;29.10;30.50
52245;DHT22;55759;51.586;-1.758;2023-04-03T14:34:05;29.70;25.70
52245;DHT22;55759;51.586;-1.758;2023-04-03T14:36:31;30.10;25.30
52245;DHT22;55759;51.586;-1.758;2023-04-03T14:38:58;30.30;30.40
52245;DHT22;55759;51.586;-1.758;2023-04-03T14:41:25;31.30;26.40
52245;DHT22;55759;51.586;-1.758;2023-04-03T14:43:51;31.80;23.50
52245;DHT22;55759;51.586;-1.758;2023-04-03T14:46:30;31.00;23.10
52245;DHT22;55759;51.586;-1.758;2023-04-03T14:48:57;30.90;24.10
52245;DHT22;55759;51.586;-1.758;2023-04-03T14:51:23;30.70;30.40
52245;DHT22;55759;51.586;-1.758;2023-04-03T14:53:49;31.10;28.40
52245;DHT22;55759;51.586;-1.758;2023-04-03T14:56:21;30.90;24.50
52245;DHT22;55759;51.586;-1.758;2023-04-03T14:58:49;30.40;24.30
52245;DHT22;55759;51.586;-1.758;2023-04-03T15:01:18;30.10;24.70
52245;DHT22;55759;51.586;-1.758;2023-04-03T15:03:53;29.90;24.20
52245;DHT22;55759;51.586;-1.758;2023-04-03T15:06:19;29.50;25.10
52245;DHT22;55759;51.586;-1.758;2023-04-03T15:08:51;28.70;25.40
52245;DHT22;55759;51.586;-1.758;2023-04-03T15:11:17;28.50;25.80
52245;DHT22;55759;51.586;-1.758;2023-04-03T15:13:45;27.70;26.90
52245;DHT22;55759;51.586;-1.758;2023-04-03T15:16:18;27.10;30.10
52245;DHT22;55759;51.586;-1.758;2023-04-03T15:18:45;27.70;30.80
52245;DHT22;55759;51.586;-1.758;2023-04-03T15:21:17;29.30;28.60
52245;DHT22;55759;51.586;-1.758;2023-04-03T15:23:43;31.00;28.60
52245;DHT22;55759;51.586;-1.758;2023-04-03T15:29:17;33.10;22.70
52245;DHT22;55759;51.586;-1.758;2023-04-03T15:31:43;33.00;25.20
52245;DHT22;55759;51.586;-1.758;2023-04-03T15:34:08;33.20;27.50
52245;DHT22;55759;51.586;-1.758;2023-04-03T15:36:34;33.50;26.80
52245;DHT22;55759;51.586;-1.758;2023-04-03T15:39:00;33.90;25.80
52245;DHT22;55759;51.586;-1.758;2023-04-03T15:41:26;34.10;25.30
52245;DHT22;55759;51.586;-1.758;2023-04-03T15:43:52;33.90;19.60
52245;DHT22;55759;51.586;-1.758;2023-04-03T15:46:17;32.00;22.90
52245;DHT22;55759;51.586;-1.758;2023-04-03T15:48:43;31.70;27.60
52245;DHT22;55759;51.586;-1.758;2023-04-03T15:51:10;32.60;28.00
52245;DHT22;55759;51.586;-1.758;2023-04-03T15:53:36;32.90;25.20
52245;DHT22;55759;51.586;-1.758;2023-04-03T15:56:02;32.50;24.30
52245;DHT22;55759;51.586;-1.758;2023-04-03T15:58:30;32.80;26.90
52245;DHT22;55759;51.586;-1.758;2023-04-03T16:00:56;33.10;24.80
52245;DHT22;55759;51.586;-1.758;2023-04-03T16:03:22;32.90;22.80
52245;DHT22;55759;51.586;-1.758;2023-04-03T16:05:50;32.20;24.50
52245;DHT22;55759;51.586;-1.758;2023-04-03T16:08:17;31.00;24.40
52245;DHT22;55759;51.586;-1.758;2023-04-03T16:10:43;30.10;26.20
52245;DHT22;55759;51.586;-1.758;2023-04-03T16:13:14;28.50;29.50
52245;DHT22;55759;51.586;-1.758;2023-04-03T16:15:41;27.00;32.60
52245;DHT22;55759;51.586;-1.758;2023-04-03T16:18:08;24.60;30.30
52245;DHT22;55759;51.586;-1.758;2023-04-03T16:20:34;22.00;41.10
52245;DHT22;55759;51.586;-1.758;2023-04-03T16:23:00;20.70;40.30
52245;DHT22;55759;51.586;-1.758;2023-04-03T16:25:26;19.80;47.10
52245;DHT22;55759;51.586;-1.758;2023-04-03T16:27:52;19.10;50.70
52245;DHT22;55759;51.586;-1.758;2023-04-03T16:30:18;18.40;44.70
52245;DHT22;55759;51.586;-1.758;2023-04-03T16:32:45;17.60;46.50
52245;DHT22;55759;51.586;-1.758;2023-04-03T16:35:14;17.00;44.20
52245;DHT22;55759;51.586;-1.758;2023-04-03T16:37:39;16.40;45.10
52245;DHT22;55759;51.586;-1.758;2023-04-03T16:40:06;16.00;49.20
52245;DHT22;55759;51.586;-1.758;2023-04-03T16:42:32;15.60;45.40
52245;DHT22;55759;51.586;-1.758;2023-04-03T16:44:58;15.30;46.10
52245;DHT22;55759;51.586;-1.758;2023-04-03T16:47:26;15.70;46.90
52245;DHT22;55759;51.586;-1.758;2023-04-03T16:49:52;16.60;44.30
52245;DHT22;55759;51.586;-1.758;2023-04-03T16:52:18;17.60;43.50
52245;DHT22;55759;51.586;-1.758;2023-04-03T16:54:43;18.50;43.80
52245;DHT22;55759;51.586;-1.758;2023-04-03T16:57:09;19.10;39.60
52245;DHT22;55759;51.586;-1.758;2023-04-03T16:59:35;19.20;36.20
52245;DHT22;55759;51.586;-1.758;2023-04-03T17:02:01;19.30;40.30
52245;DHT22;55759;51.586;-1.758;2023-04-03T17:04:26;19.60;39.90
52245;DHT22;55759;51.586;-1.758;2023-04-03T17:06:52;19.60;37.00
52245;DHT22;55759;51.586;-1.758;2023-04-03T17:09:18;19.60;40.40
52245;DHT22;55759;51.586;-1.758;2023-04-03T17:11:46;19.80;40.70
52245;DHT22;55759;51.586;-1.758;2023-04-03T17:14:12;19.90;43.60
52245;DHT22;55759;51.586;-1.758;2023-04-03T17:16:38;19.60;35.80
52245;DHT22;55759;51.586;-1.758;2023-04-03T17:19:04;19.10;36.20
52245;DHT22;55759;51.586;-1.758;2023-04-03T17:21:32;18.50;39.70
52245;DHT22;55759;51.586;-1.758;2023-04-03T17:24:02;17.90;40.00
52245;DHT22;55759;51.586;-1.758;2023-04-03T17:26:29;17.30;41.00
52245;DHT22;55759;51.586;-1.758;2023-04-03T17:28:54;16.80;46.80
52245;DHT22;55759;51.586;-1.758;2023-04-03T17:31:22;16.60;49.00
52245;DHT22;55759;51.586;-1.758;2023-04-03T17:33:47;16.40;47.40
52245;DHT22;55759;51.586;-1.758;2023-04-03T17:36:13;16.30;45.00
52245;DHT22;55759;51.586;-1.758;2023-04-03T17:38:39;16.00;43.90